Weather at Samos Airport

Public forecast

Using degrees Celsius for public forecast. Weather courtesy of forecast.io.

Current aviation weather report (METAR) for Samos Airport

Retrieved 2021/04/12 20:50 UTC (1 hour ago):

LGSM 122050Z 00000KT CAVOK 13/09 Q1019

Aviation forecast (TAF) for Samos Airport

Forecast is more than 12 hours old.

Retrieved 2012/09/21 03:06 UTC (9 years ago):

TAF LGSM 210200Z 2103/2115 VRB05KT 9999 FEW020 BECMG 2104/2106 30012KT